Time;durP1;ratioP1;P1;durP2;ratioP2;P2;SDS_P1;SDS_P2;PMS_P1;PMS_P2;Temp;Humidity;BMP_temperature;BMP_pressure;BME280_temperature;BME280_humidity;BME280_pressure;Samples;Min_cycle;Max_cycle;Signal;HPM_P1;HPM_P2
2023/08/16 00:01:50;;;;;;;3.88;1.10;;;20.90;99.90;;;;;;4164220;28;20585;-88
2023/08/16 00:03:50;;;;;;;2.63;0.93;;;20.80;99.90;;;;;;4164289;28;20290;-88
2023/08/16 00:05:52;;;;;;;1.95;0.70;;;20.80;99.90;;;;;;4164097;28;20607;-87
2023/08/16 00:07:53;;;;;;;0.68;0.50;;;20.90;99.90;;;;;;4164495;28;20302;-88
2023/08/16 00:09:53;;;;;;;0.60;0.52;;;20.80;99.90;;;;;;4164331;28;20199;-87
2023/08/16 00:11:54;;;;;;;0.85;0.60;;;20.60;99.90;;;;;;4164236;28;20204;-88
2023/08/16 00:13:55;;;;;;;3.85;0.73;;;20.50;99.90;;;;;;4180814;28;20226;-88
2023/08/16 00:15:56;;;;;;;2.53;0.80;;;20.40;99.90;;;;;;4164539;28;20211;-88
2023/08/16 00:17:56;;;;;;;2.85;0.70;;;20.20;99.90;;;;;;4164077;28;20625;-87
2023/08/16 00:19:57;;;;;;;1.50;0.93;;;20.20;99.90;;;;;;4182989;28;20268;-88
2023/08/16 00:21:58;;;;;;;1.23;0.75;;;20.10;99.90;;;;;;4183829;28;20164;-88
2023/08/16 00:23:59;;;;;;;3.55;1.27;;;20.10;99.90;;;;;;4183605;28;20199;-92
2023/08/16 00:25:59;;;;;;;1.77;0.77;;;20.20;99.90;;;;;;4167434;28;20561;-88
2023/08/16 00:28:00;;;;;;;1.08;0.70;;;20.10;99.90;;;;;;4184058;28;20167;-88
2023/08/16 00:30:01;;;;;;;5.10;0.95;;;20.10;99.90;;;;;;4183596;28;20204;-88
2023/08/16 00:32:04;;;;;;;1.92;0.70;;;20.30;99.90;;;;;;4183499;28;20171;-87
2023/08/16 00:34:05;;;;;;;1.88;0.95;;;20.50;99.90;;;;;;4167574;28;20172;-88
2023/08/16 00:36:07;;;;;;;1.98;0.70;;;20.20;99.90;;;;;;4167206;28;20499;-88
2023/08/16 00:38:08;;;;;;;1.95;0.60;;;20.20;99.90;;;;;;4200257;28;20198;-88
2023/08/16 00:40:09;;;;;;;1.55;0.80;;;20.20;99.90;;;;;;4167050;28;20195;-87
2023/08/16 00:42:10;;;;;;;1.08;0.70;;;20.00;99.90;;;;;;4183560;28;20175;-88
2023/08/16 00:44:11;;;;;;;2.33;0.98;;;19.90;99.90;;;;;;4183693;28;20631;-88
2023/08/16 00:46:13;;;;;;;1.25;1.00;;;20.00;99.90;;;;;;4166703;28;20219;-88
2023/08/16 00:48:15;;;;;;;0.60;0.60;;;20.10;99.90;;;;;;4166789;28;20173;-88
2023/08/16 00:50:17;;;;;;;1.20;0.75;;;20.30;99.90;;;;;;4183378;28;20183;-88
2023/08/16 00:52:18;;;;;;;1.75;0.95;;;20.40;99.90;;;;;;4200000;28;20175;-88
2023/08/16 00:54:19;;;;;;;1.25;0.80;;;20.20;99.90;;;;;;4166946;28;20178;-88
2023/08/16 00:56:20;;;;;;;1.33;0.88;;;20.20;99.90;;;;;;4166771;28;20569;-87
2023/08/16 00:58:22;;;;;;;1.65;0.93;;;20.30;99.90;;;;;;4200706;28;20175;-88
2023/08/16 01:00:23;;;;;;;1.92;1.10;;;20.50;99.90;;;;;;4167623;28;20192;-90
2023/08/16 01:02:25;;;;;;;3.72;1.40;;;20.70;99.90;;;;;;4166898;28;20168;-88
2023/08/16 01:04:26;;;;;;;1.23;0.95;;;20.60;99.90;;;;;;4166536;28;20250;-87
2023/08/16 01:06:27;;;;;;;2.63;0.95;;;20.30;99.90;;;;;;4166454;28;20270;-88
2023/08/16 01:08:30;;;;;;;3.20;1.30;;;20.10;99.90;;;;;;4200790;28;20202;-88
2023/08/16 01:11:08;;;;;;;1.42;0.85;;;19.90;99.90;;;;;;4168658;28;20619;-89
2023/08/16 01:13:13;;;;;;;0.88;0.65;;;19.80;99.90;;;;;;4167941;28;20187;-88
2023/08/16 01:15:26;;;;;;;1.90;1.15;;;20.30;99.90;;;;;;4167445;28;20168;-87
2023/08/16 01:17:29;;;;;;;1.23;0.80;;;20.60;99.90;;;;;;4184048;28;20176;-88
2023/08/16 01:19:32;;;;;;;2.97;1.02;;;20.50;99.90;;;;;;4167251;28;20251;-88
2023/08/16 01:21:51;;;;;;;1.60;1.02;;;20.10;99.90;;;;;;4166695;28;20206;-88
2023/08/16 01:24:18;;;;;;;1.00;0.52;;;19.80;99.90;;;;;;4166481;28;20290;-88
2023/08/16 01:26:37;;;;;;;1.67;0.88;;;19.80;99.90;;;;;;4166135;28;20188;-88
2023/08/16 01:28:41;;;;;;;1.10;0.80;;;19.90;99.90;;;;;;4166198;28;20187;-87
2023/08/16 01:30:45;;;;;;;1.27;0.85;;;19.60;99.90;;;;;;4181775;28;20206;-87
2023/08/16 01:32:47;;;;;;;1.10;0.70;;;19.70;99.90;;;;;;4199210;28;20167;-88
2023/08/16 01:34:48;;;;;;;5.25;1.08;;;20.00;99.90;;;;;;4182716;28;20797;-88
2023/08/16 01:36:49;;;;;;;1.85;0.98;;;20.10;99.90;;;;;;4183804;28;20175;-88
2023/08/16 01:38:50;;;;;;;2.72;1.05;;;20.40;99.90;;;;;;4165989;28;20210;-88
2023/08/16 01:41:12;;;;;;;2.85;1.23;;;20.20;99.90;;;;;;4165985;28;20203;-88
2023/08/16 01:43:16;;;;;;;2.30;1.00;;;19.80;99.90;;;;;;4165942;28;20168;-88
2023/08/16 01:45:18;;;;;;;1.55;1.02;;;19.60;99.90;;;;;;4166170;28;20183;-88
2023/08/16 01:47:19;;;;;;;1.55;1.00;;;19.70;99.90;;;;;;4165967;28;20176;-87
2023/08/16 01:49:22;;;;;;;1.05;0.68;;;19.60;99.90;;;;;;4182651;28;20175;-88
2023/08/16 01:51:23;;;;;;;1.48;0.93;;;19.50;99.90;;;;;;4182848;28;20163;-88
2023/08/16 01:53:24;;;;;;;1.48;0.95;;;19.30;99.90;;;;;;4182588;28;20265;-88
2023/08/16 01:55:25;;;;;;;1.27;0.70;;;19.10;99.90;;;;;;4165664;28;20179;-88
2023/08/16 01:57:26;;;;;;;1.90;1.10;;;19.10;99.90;;;;;;4165730;28;20172;-88
2023/08/16 01:59:27;;;;;;;1.15;0.75;;;19.10;99.90;;;;;;4165681;28;20176;-88
2023/08/16 02:01:27;;;;;;;1.00;0.90;;;19.10;99.90;;;;;;4165683;28;20160;-88
2023/08/16 02:03:28;;;;;;;1.42;0.90;;;19.10;99.90;;;;;;4165744;28;20282;-89
2023/08/16 02:05:29;;;;;;;2.53;0.88;;;19.10;99.90;;;;;;4182218;28;20199;-88
2023/08/16 02:07:30;;;;;;;3.45;1.00;;;19.10;99.90;;;;;;4182006;28;20254;-88
2023/08/16 02:09:31;;;;;;;0.80;0.60;;;19.10;99.90;;;;;;4165537;28;20184;-93
2023/08/16 02:11:31;;;;;;;2.47;0.68;;;19.20;99.90;;;;;;4165458;28;20164;-88
2023/08/16 02:13:32;;;;;;;1.27;0.85;;;19.30;99.90;;;;;;4182138;28;20176;-88
2023/08/16 02:15:33;;;;;;;1.92;0.90;;;19.40;99.90;;;;;;4165395;28;20176;-93
2023/08/16 02:17:34;;;;;;;14.00;1.70;;;19.50;99.90;;;;;;4165409;28;20235;-88
2023/08/16 02:19:34;;;;;;;1.63;1.08;;;19.50;99.90;;;;;;4181763;28;20195;-88
2023/08/16 02:21:35;;;;;;;1.83;1.20;;;19.60;99.90;;;;;;4165466;28;20234;-93
2023/08/16 02:23:36;;;;;;;2.10;1.15;;;19.60;99.90;;;;;;4181568;28;20234;-88
2023/08/16 02:25:39;;;;;;;1.60;1.25;;;19.50;99.90;;;;;;4165339;28;20168;-88
2023/08/16 02:27:41;;;;;;;4.35;1.13;;;19.30;99.90;;;;;;4165534;28;20580;-90
2023/08/16 02:29:42;;;;;;;1.88;1.15;;;19.20;99.90;;;;;;4165272;28;20184;-88
2023/08/16 02:31:43;;;;;;;3.30;1.55;;;19.30;99.90;;;;;;4181332;28;20226;-88
2023/08/16 02:33:44;;;;;;;1.35;0.95;;;19.20;99.90;;;;;;4181568;28;20230;-88
2023/08/16 02:35:44;;;;;;;1.58;1.10;;;19.20;99.90;;;;;;4165167;28;20299;-88
2023/08/16 02:37:45;;;;;;;5.30;1.30;;;19.20;99.90;;;;;;4165015;28;20160;-93
2023/08/16 02:39:46;;;;;;;1.70;1.00;;;19.20;99.90;;;;;;4181426;28;20195;-88
2023/08/16 02:41:47;;;;;;;1.45;1.08;;;19.30;99.90;;;;;;4164928;28;20654;-88
2023/08/16 02:43:48;;;;;;;2.53;1.20;;;19.30;99.90;;;;;;4181402;28;20195;-91
2023/08/16 02:45:49;;;;;;;1.95;1.15;;;19.20;99.90;;;;;;4165132;28;20230;-88
2023/08/16 02:47:49;;;;;;;2.35;1.10;;;19.30;99.90;;;;;;4181591;28;20168;-87
2023/08/16 02:49:50;;;;;;;2.58;1.17;;;19.20;99.90;;;;;;4165048;28;20210;-88
2023/08/16 02:51:51;;;;;;;1.80;1.20;;;19.40;99.90;;;;;;4165140;28;20173;-88
2023/08/16 02:53:52;;;;;;;1.23;0.77;;;19.50;99.90;;;;;;4181615;28;20167;-92
2023/08/16 02:55:52;;;;;;;4.00;1.40;;;19.50;99.90;;;;;;4165039;28;20221;-88
2023/08/16 02:57:53;;;;;;;1.30;0.90;;;19.50;99.90;;;;;;4164658;28;20172;-88
2023/08/16 02:59:54;;;;;;;2.00;1.17;;;19.60;99.90;;;;;;4181214;28;20206;-88
2023/08/16 03:01:55;;;;;;;2.03;0.70;;;19.60;99.90;;;;;;4181186;28;20226;-88
2023/08/16 03:03:55;;;;;;;2.25;0.90;;;19.60;99.90;;;;;;4181406;28;20305;-87
2023/08/16 03:05:56;;;;;;;2.22;1.10;;;19.70;99.90;;;;;;4164896;28;20269;-88
2023/08/16 03:07:58;;;;;;;3.40;1.50;;;19.70;99.90;;;;;;4165080;28;20180;-88
2023/08/16 03:09:58;;;;;;;0.90;0.80;;;19.50;99.90;;;;;;4164704;28;20243;-87
2023/08/16 03:12:02;;;;;;;1.90;1.08;;;19.50;99.90;;;;;;4164854;28;20522;-88
2023/08/16 03:14:03;;;;;;;3.25;1.55;;;19.50;99.90;;;;;;4197836;28;20217;-89
2023/08/16 03:16:04;;;;;;;2.33;1.40;;;19.40;99.90;;;;;;4181350;28;20254;-94
2023/08/16 03:18:04;;;;;;;2.97;1.20;;;19.40;99.90;;;;;;4181044;28;20701;-88
2023/08/16 03:20:07;;;;;;;3.10;1.60;;;19.40;99.90;;;;;;4164713;28;20283;-88
2023/08/16 03:22:08;;;;;;;2.28;1.10;;;19.50;99.90;;;;;;4164795;28;20172;-87
2023/08/16 03:24:09;;;;;;;1.83;1.30;;;19.40;99.90;;;;;;4164554;28;20204;-88
2023/08/16 03:26:10;;;;;;;4.43;1.70;;;19.50;99.90;;;;;;4164254;28;20656;-88
2023/08/16 03:28:10;;;;;;;1.98;1.08;;;19.60;99.90;;;;;;4197285;28;20262;-87
2023/08/16 03:30:11;;;;;;;3.33;1.20;;;19.70;99.90;;;;;;4164357;28;20191;-88
2023/08/16 03:32:14;;;;;;;2.88;1.40;;;19.60;99.90;;;;;;4164726;28;20168;-88
2023/08/16 03:34:16;;;;;;;3.30;1.55;;;19.40;99.90;;;;;;4164435;28;20183;-87
2023/08/16 03:36:17;;;;;;;1.92;1.30;;;19.40;99.90;;;;;;4164760;28;20271;-88
2023/08/16 03:38:18;;;;;;;4.00;1.40;;;19.30;99.90;;;;;;4197606;28;20163;-88
2023/08/16 03:40:19;;;;;;;1.77;1.30;;;19.20;99.90;;;;;;4164408;28;20282;-87
2023/08/16 03:42:20;;;;;;;1.15;0.95;;;19.30;99.90;;;;;;4165108;28;20172;-88
2023/08/16 03:44:20;;;;;;;2.10;1.40;;;19.40;99.90;;;;;;4164393;28;20289;-88
2023/08/16 03:46:21;;;;;;;3.05;1.10;;;19.40;99.90;;;;;;4164907;28;20718;-91
2023/08/16 03:48:22;;;;;;;3.00;1.65;;;19.40;99.90;;;;;;4181742;28;20170;-88
2023/08/16 03:50:23;;;;;;;2.50;1.25;;;19.50;99.90;;;;;;4164737;28;20192;-88
2023/08/16 03:52:24;;;;;;;2.80;1.73;;;19.50;99.90;;;;;;4164842;28;20263;-88
2023/08/16 03:54:24;;;;;;;1.83;1.27;;;19.30;99.90;;;;;;4182712;28;20285;-88
2023/08/16 03:56:25;;;;;;;3.13;1.80;;;19.20;99.90;;;;;;4184287;28;20233;-91
2023/08/16 03:58:29;;;;;;;4.47;1.13;;;19.30;99.90;;;;;;4167625;28;20168;-91
2023/08/16 04:00:29;;;;;;;4.20;1.60;;;19.30;99.90;;;;;;4184048;28;20203;-88
2023/08/16 04:02:32;;;;;;;2.58;1.15;;;19.30;99.90;;;;;;4167746;28;20172;-88
2023/08/16 04:04:33;;;;;;;2.35;1.40;;;19.40;99.90;;;;;;4167679;28;20200;-88
2023/08/16 04:06:34;;;;;;;1.95;1.02;;;19.50;99.90;;;;;;4167395;28;20187;-91
2023/08/16 04:08:36;;;;;;;2.50;1.17;;;19.50;99.90;;;;;;4183994;28;20271;-88
2023/08/16 04:10:37;;;;;;;3.20;1.50;;;19.60;99.90;;;;;;4183898;28;20187;-89
2023/08/16 04:12:38;;;;;;;2.25;1.48;;;19.60;99.90;;;;;;4167593;28;20168;-88
2023/08/16 04:14:39;;;;;;;2.72;1.48;;;19.50;99.90;;;;;;4167681;28;20188;-88
2023/08/16 04:16:40;;;;;;;2.15;1.25;;;19.60;99.90;;;;;;4167344;28;20165;-88
2023/08/16 04:18:41;;;;;;;4.15;1.58;;;19.70;99.90;;;;;;4167561;28;20184;-87
2023/08/16 04:20:41;;;;;;;5.43;1.40;;;19.80;99.90;;;;;;4167456;28;20222;-88
2023/08/16 04:22:42;;;;;;;3.85;2.13;;;19.90;99.90;;;;;;4183803;28;20266;-87
2023/08/16 04:24:43;;;;;;;3.25;1.92;;;19.90;99.90;;;;;;4167284;28;20215;-87
2023/08/16 04:26:44;;;;;;;3.70;2.17;;;19.80;99.90;;;;;;4167206;28;20210;-88
2023/08/16 04:28:44;;;;;;;2.75;1.52;;;19.60;99.90;;;;;;4167066;28;20172;-87
2023/08/16 04:30:45;;;;;;;2.53;1.40;;;19.60;99.90;;;;;;4167079;28;20258;-88
2023/08/16 04:32:46;;;;;;;2.10;1.38;;;20.10;99.90;;;;;;4167133;28;20203;-87
2023/08/16 04:34:47;;;;;;;7.22;2.40;;;20.40;99.90;;;;;;4167193;28;20259;-87
2023/08/16 04:36:48;;;;;;;4.68;2.25;;;20.20;99.90;;;;;;4167053;28;20165;-88
2023/08/16 04:38:49;;;;;;;2.67;1.85;;;19.70;99.90;;;;;;4183713;28;20210;-88
2023/08/16 04:40:50;;;;;;;3.97;1.65;;;19.90;99.90;;;;;;4166957;28;20222;-92
2023/08/16 04:42:51;;;;;;;5.35;2.40;;;19.50;99.90;;;;;;4167086;28;20172;-88
2023/08/16 04:44:52;;;;;;;3.17;2.08;;;19.60;99.90;;;;;;4183703;28;20671;-88
2023/08/16 04:46:53;;;;;;;7.25;3.03;;;19.70;99.90;;;;;;4183424;28;20551;-88
2023/08/16 04:48:53;;;;;;;6.63;2.13;;;19.80;99.90;;;;;;4167007;28;20200;-87
2023/08/16 04:50:54;;;;;;;5.78;2.53;;;19.60;99.90;;;;;;4166838;28;20192;-87
2023/08/16 04:52:56;;;;;;;3.10;2.15;;;20.00;99.90;;;;;;4166951;28;20172;-87
2023/08/16 04:54:59;;;;;;;6.20;2.90;;;20.20;99.90;;;;;;4183311;28;20198;-87
2023/08/16 04:57:01;;;;;;;10.45;2.90;;;19.90;99.90;;;;;;4166800;28;20180;-88
2023/08/16 04:59:05;;;;;;;4.25;2.53;;;19.50;99.90;;;;;;4199810;28;20217;-87
2023/08/16 05:01:06;;;;;;;4.13;2.60;;;19.70;99.90;;;;;;4166436;28;20545;-87
2023/08/16 05:03:08;;;;;;;5.10;2.65;;;19.80;99.90;;;;;;4166676;28;20632;-87
2023/08/16 05:05:09;;;;;;;6.50;3.05;;;19.60;99.90;;;;;;4182045;28;20571;-87
2023/08/16 05:07:10;;;;;;;4.47;2.53;;;19.40;99.90;;;;;;4166277;28;20160;-87
2023/08/16 05:09:11;;;;;;;5.05;3.05;;;19.50;99.90;;;;;;4183260;28;20246;-87
2023/08/16 05:11:12;;;;;;;4.40;2.33;;;19.50;99.90;;;;;;4182910;28;20199;-88
2023/08/16 05:13:12;;;;;;;6.10;2.70;;;19.70;99.90;;;;;;4166283;28;20180;-95
2023/08/16 05:15:13;;;;;;;5.35;2.60;;;19.60;99.90;;;;;;4182849;28;20167;-88
2023/08/16 05:17:15;;;;;;;6.35;2.25;;;19.70;99.90;;;;;;4182910;28;20648;-90
2023/08/16 05:19:15;;;;;;;4.47;2.85;;;19.60;99.90;;;;;;4166336;28;20210;-89
2023/08/16 05:21:17;;;;;;;3.78;1.90;;;19.80;99.90;;;;;;4182997;28;20278;-89
2023/08/16 05:23:17;;;;;;;5.05;2.42;;;19.70;99.90;;;;;;4166414;28;20230;-90
2023/08/16 05:25:18;;;;;;;3.47;2.20;;;19.70;99.90;;;;;;4182815;28;20183;-89
2023/08/16 05:27:19;;;;;;;4.00;2.88;;;19.90;99.90;;;;;;4199506;28;20575;-90
2023/08/16 05:29:20;;;;;;;5.40;3.05;;;20.10;99.90;;;;;;4182814;28;20221;-90
2023/08/16 05:31:20;;;;;;;5.00;2.45;;;20.20;99.90;;;;;;4165949;28;20188;-90
2023/08/16 05:33:21;;;;;;;4.15;2.47;;;20.30;99.90;;;;;;4182462;28;20181;-90
2023/08/16 05:35:23;;;;;;;4.75;2.72;;;20.40;99.90;;;;;;4166360;28;20164;-90
2023/08/16 05:37:23;;;;;;;3.95;2.20;;;20.40;99.90;;;;;;4166366;28;20199;-90
2023/08/16 05:39:24;;;;;;;5.80;2.42;;;20.60;99.90;;;;;;4166101;28;20288;-90
2023/08/16 05:41:25;;;;;;;5.68;2.20;;;20.80;99.90;;;;;;4166106;28;20259;-89
2023/08/16 05:43:26;;;;;;;8.30;2.80;;;20.90;99.90;;;;;;4166172;28;20260;-90
2023/08/16 05:45:28;;;;;;;4.22;2.75;;;20.80;99.90;;;;;;4166208;28;20179;-90
2023/08/16 05:47:28;;;;;;;5.22;2.60;;;20.80;99.90;;;;;;4166329;28;20572;-89
2023/08/16 05:49:29;;;;;;;4.97;2.85;;;20.60;99.90;;;;;;4166102;28;20184;-89
2023/08/16 05:51:30;;;;;;;3.83;2.28;;;20.50;99.90;;;;;;4166275;28;20206;-89
2023/08/16 05:53:31;;;;;;;4.32;2.50;;;20.50;99.90;;;;;;4165913;28;20180;-91
2023/08/16 05:55:31;;;;;;;5.03;2.35;;;20.50;99.90;;;;;;4166087;28;20656;-90
2023/08/16 05:57:32;;;;;;;4.40;2.40;;;20.50;99.90;;;;;;4182746;28;20168;-89
2023/08/16 05:59:33;;;;;;;3.65;2.03;;;20.50;99.90;;;;;;4165628;28;20204;-90
2023/08/16 06:01:33;;;;;;;3.22;2.20;;;20.50;99.90;;;;;;4165442;28;20172;-90
2023/08/16 06:03:34;;;;;;;3.65;2.03;;;20.60;99.90;;;;;;4165417;28;20208;-90
2023/08/16 06:05:35;;;;;;;5.60;2.17;;;20.40;99.90;;;;;;4165569;28;20271;-90
2023/08/16 06:07:36;;;;;;;3.90;2.47;;;20.30;99.90;;;;;;4165751;28;20176;-90
2023/08/16 06:09:37;;;;;;;4.28;2.40;;;20.40;99.90;;;;;;4165844;28;20230;-89
2023/08/16 06:11:37;;;;;;;3.97;2.30;;;20.40;99.90;;;;;;4181891;28;20179;-90
2023/08/16 06:13:38;;;;;;;3.72;2.58;;;20.50;99.90;;;;;;4165884;28;20172;-89
2023/08/16 06:15:39;;;;;;;4.28;2.47;;;20.50;99.90;;;;;;4165851;28;20183;-89
2023/08/16 06:17:40;;;;;;;4.20;2.67;;;20.60;99.90;;;;;;4165308;28;20613;-91
2023/08/16 06:19:42;;;;;;;4.75;2.72;;;20.50;99.90;;;;;;4198761;28;20171;-90
2023/08/16 06:21:43;;;;;;;6.22;2.80;;;20.50;99.90;;;;;;4165510;28;20183;-92
2023/08/16 06:23:44;;;;;;;5.85;2.25;;;20.60;99.90;;;;;;4181599;28;20634;-90
2023/08/16 06:25:45;;;;;;;5.97;2.90;;;20.60;99.90;;;;;;4165672;28;20184;-89
2023/08/16 06:27:46;;;;;;;5.80;2.90;;;20.60;99.90;;;;;;4165308;28;20207;-89
2023/08/16 06:29:46;;;;;;;8.35;3.90;;;20.60;99.90;;;;;;4165422;28;20196;-89
2023/08/16 06:31:48;;;;;;;5.20;2.92;;;20.50;99.90;;;;;;4181694;28;20636;-90
2023/08/16 06:33:49;;;;;;;4.55;2.67;;;20.60;99.90;;;;;;4165481;28;20640;-90
2023/08/16 06:35:51;;;;;;;5.25;3.20;;;20.50;99.90;;;;;;4165186;28;20179;-91
2023/08/16 06:37:52;;;;;;;10.50;3.42;;;20.50;99.90;;;;;;4165394;28;20169;-90
2023/08/16 06:39:53;;;;;;;4.32;2.72;;;20.40;99.90;;;;;;4181831;28;20242;-90
2023/08/16 06:41:53;;;;;;;5.80;2.92;;;20.40;99.90;;;;;;4165094;28;20258;-89
2023/08/16 06:43:55;;;;;;;7.13;3.83;;;20.40;99.90;;;;;;4165235;28;20317;-90
2023/08/16 06:45:57;;;;;;;6.55;3.35;;;20.20;99.90;;;;;;4181394;28;20159;-90
2023/08/16 06:47:59;;;;;;;7.85;3.88;;;20.20;99.90;;;;;;4164954;28;20211;-89
2023/08/16 06:50:00;;;;;;;7.22;3.67;;;20.10;99.90;;;;;;4165119;28;20180;-90
2023/08/16 06:52:01;;;;;;;9.00;4.43;;;20.10;99.90;;;;;;4165090;28;20359;-90
2023/08/16 06:54:02;;;;;;;5.95;3.33;;;20.20;99.90;;;;;;4164889;28;20160;-90
2023/08/16 06:56:04;;;;;;;6.18;3.70;;;20.20;99.90;;;;;;4164659;28;20199;-90
2023/08/16 06:58:07;;;;;;;7.28;3.65;;;20.40;99.90;;;;;;4165075;28;20282;-89
2023/08/16 07:00:08;;;;;;;5.15;3.38;;;20.40;99.90;;;;;;4181473;28;20194;-88
2023/08/16 07:02:14;;;;;;;7.05;3.53;;;20.60;99.90;;;;;;4165232;28;20242;-89
2023/08/16 07:04:15;;;;;;;6.00;3.42;;;20.70;99.90;;;;;;4165185;28;20219;-88
2023/08/16 07:06:16;;;;;;;6.28;3.72;;;20.80;99.90;;;;;;4165008;28;20192;-89
2023/08/16 07:08:16;;;;;;;7.80;3.67;;;20.90;99.90;;;;;;4165206;28;20180;-88
2023/08/16 07:10:18;;;;;;;5.88;3.38;;;20.90;99.90;;;;;;4164775;28;20254;-91
2023/08/16 07:12:18;;;;;;;6.03;3.00;;;21.20;99.90;;;;;;4164904;28;20549;-89
2023/08/16 07:14:19;;;;;;;8.57;3.90;;;21.40;99.90;;;;;;4164795;28;20275;-89
2023/08/16 07:16:20;;;;;;;9.55;3.53;;;21.60;99.90;;;;;;4181293;28;20180;-89
2023/08/16 07:18:21;;;;;;;5.53;2.80;;;21.80;99.90;;;;;;4164754;28;20177;-90
2023/08/16 07:20:21;;;;;;;5.65;2.70;;;22.00;99.90;;;;;;4164901;28;20211;-89
2023/08/16 07:22:25;;;;;;;4.93;3.00;;;21.80;99.90;;;;;;4181085;28;20203;-90
2023/08/16 07:24:26;;;;;;;3.80;2.60;;;21.80;99.90;;;;;;4180895;28;20207;-88
2023/08/16 07:26:27;;;;;;;3.70;2.35;;;22.00;99.90;;;;;;4164670;28;20171;-89
2023/08/16 07:28:28;;;;;;;6.50;2.88;;;22.00;99.90;;;;;;4163954;28;20172;-89
2023/08/16 07:30:29;;;;;;;6.18;3.00;;;22.10;99.90;;;;;;4164497;28;20196;-90
2023/08/16 07:32:29;;;;;;;3.13;2.13;;;22.10;99.90;;;;;;4164531;28;20538;-89
2023/08/16 07:34:30;;;;;;;3.72;2.33;;;22.10;99.90;;;;;;4165254;28;20263;-90
2023/08/16 07:36:31;;;;;;;4.65;2.70;;;22.00;99.90;;;;;;4164537;28;20168;-89
2023/08/16 07:38:33;;;;;;;4.75;2.60;;;21.80;99.90;;;;;;4181119;28;20179;-90
2023/08/16 07:40:33;;;;;;;7.15;2.78;;;21.70;99.90;;;;;;4180952;28;20194;-89
2023/08/16 07:42:34;;;;;;;4.38;2.40;;;21.80;99.90;;;;;;4180948;28;20179;-89
2023/08/16 07:44:35;;;;;;;4.05;2.33;;;21.80;99.90;;;;;;4164530;28;20612;-89
2023/08/16 07:46:36;;;;;;;5.65;2.80;;;21.80;99.90;;;;;;4164387;28;20180;-89
2023/08/16 07:48:37;;;;;;;3.70;2.58;;;21.80;99.90;;;;;;4180764;28;20175;-89
2023/08/16 07:50:37;;;;;;;5.65;2.33;;;21.70;99.90;;;;;;4164399;28;20231;-89
2023/08/16 07:52:38;;;;;;;8.68;3.08;;;21.70;99.90;;;;;;4180847;28;20663;-89
2023/08/16 07:54:39;;;;;;;3.80;2.20;;;21.70;99.90;;;;;;4164295;28;20180;-89
2023/08/16 07:56:40;;;;;;;7.88;3.40;;;21.70;99.90;;;;;;4180959;28;20207;-89
2023/08/16 07:58:40;;;;;;;5.47;2.80;;;21.70;99.90;;;;;;4164451;28;20206;-89
2023/08/16 08:00:47;;;;;;;5.88;3.50;;;21.70;99.90;;;;;;4164468;28;20188;-92
2023/08/16 08:02:48;;;;;;;8.07;3.22;;;21.80;99.90;;;;;;4180840;28;20567;-89
2023/08/16 08:04:49;;;;;;;10.70;2.92;;;21.80;99.90;;;;;;4164179;28;20200;-89
2023/08/16 08:06:50;;;;;;;6.35;3.10;;;21.80;99.90;;;;;;4164435;28;20188;-89
2023/08/16 08:08:51;;;;;;;5.25;2.90;;;22.00;99.90;;;;;;4164767;28;20172;-89
2023/08/16 08:10:51;;;;;;;5.70;2.47;;;22.20;99.90;;;;;;4164483;28;20291;-89
2023/08/16 08:12:52;;;;;;;6.65;3.38;;;22.30;99.90;;;;;;4164611;28;20238;-89
2023/08/16 08:14:53;;;;;;;5.28;3.03;;;22.50;99.90;;;;;;4181144;28;20182;-91
2023/08/16 08:16:56;;;;;;;5.15;2.50;;;22.90;99.90;;;;;;4164438;28;20171;-89
2023/08/16 08:18:57;;;;;;;4.05;2.65;;;23.10;99.90;;;;;;4164596;28;20168;-90
2023/08/16 08:20:59;;;;;;;4.63;2.33;;;23.20;99.90;;;;;;4164120;28;20219;-90
2023/08/16 08:23:00;;;;;;;6.47;2.58;;;23.10;99.90;;;;;;4164092;28;20179;-89
2023/08/16 08:25:01;;;;;;;5.15;2.20;;;23.20;99.90;;;;;;4180573;28;20211;-89
2023/08/16 08:27:01;;;;;;;3.58;2.47;;;23.20;99.90;;;;;;4163988;28;20176;-90
2023/08/16 08:29:02;;;;;;;3.65;2.03;;;23.10;99.90;;;;;;4164111;28;20676;-89
2023/08/16 08:31:03;;;;;;;3.00;1.75;;;22.90;99.90;;;;;;4164147;28;20192;-89
2023/08/16 08:33:04;;;;;;;2.88;1.77;;;22.60;99.90;;;;;;4180596;28;20326;-90
2023/08/16 08:35:05;;;;;;;5.95;2.17;;;22.30;99.90;;;;;;4164066;28;20219;-90
2023/08/16 08:37:06;;;;;;;2.95;1.50;;;22.20;99.90;;;;;;4164166;28;20179;-91
2023/08/16 08:39:07;;;;;;;5.82;1.80;;;22.00;99.90;;;;;;4164323;28;20600;-90
2023/08/16 08:41:08;;;;;;;4.72;1.63;;;22.00;99.90;;;;;;4166703;28;20688;-89
2023/08/16 08:43:10;;;;;;;1.92;1.27;;;21.90;99.90;;;;;;4167049;28;20227;-93
2023/08/16 08:45:14;;;;;;;3.03;1.50;;;21.80;99.90;;;;;;4183783;28;20699;-92
2023/08/16 08:47:15;;;;;;;5.13;1.70;;;21.80;99.90;;;;;;4183565;28;20222;-89
2023/08/16 08:49:17;;;;;;;4.00;1.50;;;21.80;99.90;;;;;;4166963;28;20175;-92
2023/08/16 08:51:18;;;;;;;2.67;1.23;;;21.90;99.90;;;;;;4167093;28;20196;-88
2023/08/16 08:53:22;;;;;;;2.33;1.30;;;21.90;99.90;;;;;;4183282;28;20167;-93
2023/08/16 08:55:28;;;;;;;1.58;0.80;;;21.90;99.90;;;;;;4166935;28;20180;-90
2023/08/16 08:57:30;;;;;;;1.30;0.98;;;21.90;99.90;;;;;;4167047;28;20203;-92
2023/08/16 08:59:33;;;;;;;2.33;1.17;;;22.00;99.90;;;;;;4183352;28;20180;-90
2023/08/16 09:01:35;;;;;;;2.25;0.90;;;22.10;99.90;;;;;;4199791;28;20249;-90
2023/08/16 09:03:38;;;;;;;1.33;0.80;;;22.30;99.90;;;;;;4183219;28;20199;-92
2023/08/16 09:05:44;;;;;;;3.95;1.35;;;22.30;99.90;;;;;;4166544;28;20179;-91
2023/08/16 09:07:46;;;;;;;2.63;0.90;;;22.40;99.90;;;;;;4166942;28;20203;-89
2023/08/16 09:09:49;;;;;;;1.48;0.75;;;22.70;99.90;;;;;;4166833;28;20725;-92
2023/08/16 09:11:49;;;;;;;1.80;0.60;;;23.00;99.90;;;;;;4166503;28;20176;-90
2023/08/16 09:13:51;;;;;;;1.27;0.70;;;23.60;99.90;;;;;;4166394;28;20633;-92
2023/08/16 09:15:52;;;;;;;1.27;0.70;;;23.80;99.90;;;;;;4183020;28;20270;-91
2023/08/16 09:17:53;;;;;;;1.13;0.70;;;24.10;99.90;;;;;;4166201;28;20168;-90
2023/08/16 09:19:54;;;;;;;0.85;0.55;;;24.20;99.90;;;;;;4182974;28;20192;-90
2023/08/16 09:21:56;;;;;;;1.95;0.55;;;24.10;99.90;;;;;;4183266;28;20179;-91
2023/08/16 09:23:59;;;;;;;1.65;0.60;;;23.90;99.90;;;;;;4166561;28;20212;-89
2023/08/16 09:26:00;;;;;;;1.90;1.05;;;23.70;99.90;;;;;;4166581;28;20168;-90
2023/08/16 09:28:01;;;;;;;0.57;0.52;;;23.40;99.90;;;;;;4166502;28;20643;-91
2023/08/16 09:30:02;;;;;;;0.98;0.75;;;23.20;99.90;;;;;;4166551;28;20759;-90
2023/08/16 09:32:06;;;;;;;1.60;0.93;;;23.00;99.90;;;;;;4166251;28;20187;-89
2023/08/16 09:34:07;;;;;;;1.50;0.85;;;22.90;99.90;;;;;;4166254;28;20184;-93
2023/08/16 09:36:08;;;;;;;1.10;0.70;;;23.00;99.90;;;;;;4166236;28;20203;-89
2023/08/16 09:38:09;;;;;;;3.47;0.98;;;22.90;99.90;;;;;;4182549;28;20175;-90
2023/08/16 09:40:15;;;;;;;2.95;1.20;;;23.00;99.90;;;;;;4166307;28;20538;-90
2023/08/16 09:42:15;;;;;;;0.75;0.60;;;23.20;99.90;;;;;;4199837;28;20183;-93
2023/08/16 09:44:17;;;;;;;5.57;1.33;;;23.40;99.90;;;;;;4166174;28;20216;-89
2023/08/16 09:46:20;;;;;;;1.38;0.70;;;23.50;99.90;;;;;;4166183;28;20173;-90
2023/08/16 09:48:24;;;;;;;2.63;1.15;;;23.70;99.90;;;;;;4165999;28;20172;-89
2023/08/16 09:50:25;;;;;;;3.67;1.60;;;23.60;99.90;;;;;;4198944;28;20281;-89
2023/08/16 09:52:29;;;;;;;1.08;0.90;;;23.60;99.90;;;;;;4165206;28;20764;-89
2023/08/16 09:54:31;;;;;;;1.45;0.88;;;23.60;99.90;;;;;;4182266;28;20269;-90
2023/08/16 09:56:34;;;;;;;1.60;0.95;;;23.70;99.90;;;;;;4165959;28;20176;-90
2023/08/16 09:58:34;;;;;;;7.13;0.80;;;23.70;99.90;;;;;;4166149;28;20179;-90
2023/08/16 10:00:35;;;;;;;2.65;1.05;;;24.00;99.90;;;;;;4182604;28;20292;-90
2023/08/16 10:02:37;;;;;;;2.28;0.88;;;24.20;99.90;;;;;;4165658;28;20168;-90
2023/08/16 10:04:39;;;;;;;1.92;0.93;;;24.10;99.90;;;;;;4165869;28;20215;-91
2023/08/16 10:06:40;;;;;;;1.95;0.90;;;24.30;99.90;;;;;;4165507;28;20211;-90
2023/08/16 10:08:41;;;;;;;1.50;1.02;;;24.40;99.90;;;;;;4198680;28;20292;-90
2023/08/16 10:10:43;;;;;;;3.92;1.10;;;24.60;99.90;;;;;;4165667;28;20657;-90
2023/08/16 10:12:46;;;;;;;5.30;1.38;;;24.70;99.90;;;;;;4165930;28;20176;-90
2023/08/16 10:14:46;;;;;;;1.30;0.98;;;24.40;99.90;;;;;;4182227;28;20678;-93
2023/08/16 10:16:53;;;;;;;2.35;0.77;;;24.40;99.90;;;;;;4181919;28;20203;-92
2023/08/16 10:18:55;;;;;;;1.95;1.08;;;24.40;99.90;;;;;;4165850;28;20198;-90
2023/08/16 10:20:59;;;;;;;1.30;0.93;;;24.50;99.90;;;;;;4165623;28;20303;-91
2023/08/16 10:23:03;;;;;;;2.65;1.05;;;24.80;99.90;;;;;;4165696;28;20266;-91
2023/08/16 10:25:17;;;;;;;3.13;1.08;;;24.70;99.90;;;;;;4165730;28;20606;-89
2023/08/16 10:27:21;;;;;;;2.65;1.58;;;24.70;99.90;;;;;;4198487;28;20566;-91
2023/08/16 10:29:23;;;;;;;3.03;1.52;;;24.30;99.90;;;;;;4165699;28;20199;-90
2023/08/16 10:31:34;;;;;;;2.35;1.40;;;24.10;99.90;;;;;;4165580;28;20176;-91
2023/08/16 10:33:38;;;;;;;1.00;0.90;;;24.40;99.90;;;;;;4165505;28;20230;-91